createdAt,value
2023-02-15T00:00:57.089Z,101067.58
2023-02-15T00:03:29.447Z,101062.22
2023-02-15T00:06:03.254Z,101065.75
2023-02-15T00:08:36.078Z,101064.41
2023-02-15T00:11:13.857Z,101067.58
2023-02-15T00:13:46.991Z,101066.30
2023-02-15T00:16:19.594Z,101065.55
2023-02-15T00:18:54.911Z,101067.84
2023-02-15T00:21:27.856Z,101073.20
2023-02-15T00:24:02.278Z,101065.23
2023-02-15T00:26:36.312Z,101063.56
2023-02-15T00:29:09.287Z,101062.81
2023-02-15T00:31:43.084Z,101073.53
2023-02-15T00:34:24.537Z,101067.42
2023-02-15T00:36:57.619Z,101075.63
2023-02-15T00:39:30.531Z,101074.75
2023-02-15T00:42:04.391Z,101074.81
2023-02-15T00:44:36.887Z,101075.14
2023-02-15T00:47:09.546Z,101084.84
2023-02-15T00:49:41.972Z,101077.56
2023-02-15T00:52:14.525Z,101081.25
2023-02-15T00:54:47.331Z,101075.47
2023-02-15T00:57:19.684Z,101085.34
2023-02-15T00:59:53.393Z,101088.80
2023-02-15T01:02:25.882Z,101086.94
2023-02-15T01:04:59.082Z,101091.42
2023-02-15T01:07:32.014Z,101086.19
2023-02-15T01:10:05.312Z,101085.80
2023-02-15T01:12:38.845Z,101089.42
2023-02-15T01:15:12.300Z,101086.94
2023-02-15T01:17:47.314Z,101081.78
2023-02-15T01:20:21.985Z,101080.44
2023-02-15T01:22:55.745Z,101077.30
2023-02-15T01:25:28.565Z,101082.59
2023-02-15T01:28:01.217Z,101077.50
2023-02-15T01:30:34.721Z,101073.08
2023-02-15T01:33:08.445Z,101074.00
2023-02-15T01:35:41.131Z,101073.22
2023-02-15T01:38:15.957Z,101083.11
2023-02-15T01:40:51.709Z,101080.23
2023-02-15T01:43:24.135Z,101084.65
2023-02-15T01:45:56.700Z,101083.94
2023-02-15T01:48:29.385Z,101085.59
2023-02-15T01:51:03.346Z,101091.84
2023-02-15T01:53:40.721Z,101084.59
2023-02-15T01:56:25.801Z,101087.83
2023-02-15T01:58:59.023Z,101093.31
2023-02-15T02:01:31.403Z,101089.55
2023-02-15T02:04:17.555Z,101087.63
2023-02-15T02:06:50.326Z,101091.98
2023-02-15T02:09:22.765Z,101097.98
2023-02-15T02:11:56.838Z,101086.94
2023-02-15T02:14:29.398Z,101087.13
2023-02-15T02:17:30.668Z,101101.42
2023-02-15T02:20:43.217Z,101097.98
2023-02-15T02:23:44.010Z,101107.30
2023-02-15T02:26:37.013Z,101103.61
2023-02-15T02:29:25.920Z,101105.23
2023-02-15T02:32:14.893Z,101105.82
2023-02-15T02:35:20.555Z,101108.69
2023-02-15T02:37:57.749Z,101101.59
2023-02-15T02:41:10.908Z,101108.82
2023-02-15T02:44:11.303Z,101105.48
2023-02-15T02:47:02.010Z,101105.54
2023-02-15T02:49:38.683Z,101101.98
2023-02-15T02:52:41.024Z,101112.30
2023-02-15T02:55:42.511Z,101111.02
2023-02-15T02:58:41.885Z,101113.77
2023-02-15T03:01:22.200Z,101112.88
2023-02-15T03:04:02.252Z,101111.22
2023-02-15T03:06:40.045Z,101115.63
2023-02-15T03:09:19.894Z,101116.96
2023-02-15T03:11:52.396Z,101118.80
2023-02-15T03:14:25.734Z,101122.75
2023-02-15T03:16:58.282Z,101124.87
2023-02-15T03:19:34.152Z,101123.28
2023-02-15T03:22:12.809Z,101123.68
2023-02-15T03:24:58.820Z,101121.95
2023-02-15T03:27:36.310Z,101112.56
2023-02-15T03:30:10.552Z,101118.94
2023-02-15T03:32:43.864Z,101124.30
2023-02-15T03:35:16.212Z,101121.25
2023-02-15T03:37:52.911Z,101121.25
2023-02-15T03:40:54.923Z,101126.67
2023-02-15T03:44:00.161Z,101131.96
2023-02-15T03:46:43.366Z,101128.83
2023-02-15T03:49:53.666Z,101135.53
2023-02-15T03:52:27.562Z,101131.12
2023-02-15T03:55:00.023Z,101137.69
2023-02-15T03:57:50.127Z,101144.57
2023-02-15T04:00:44.071Z,101140.67
2023-02-15T04:03:27.261Z,101135.44
2023-02-15T04:05:59.845Z,101139.73
2023-02-15T04:08:37.519Z,101134.44
2023-02-15T04:11:09.934Z,101143.99
2023-02-15T04:13:43.951Z,101141.86
2023-02-15T04:16:16.433Z,101153.80
2023-02-15T04:19:06.386Z,101146.16
2023-02-15T04:21:56.525Z,101153.80
2023-02-15T04:24:46.369Z,101160.06
2023-02-15T04:27:18.931Z,101160.13
2023-02-15T04:29:51.515Z,101159.55
2023-02-15T04:32:23.902Z,101147.83
2023-02-15T04:34:56.764Z,101141.89
2023-02-15T04:37:29.754Z,101146.42
2023-02-15T04:40:02.232Z,101154.06
2023-02-15T04:42:34.813Z,101153.55
2023-02-15T04:45:07.799Z,101158.69
2023-02-15T04:47:40.323Z,101151.14
2023-02-15T04:50:13.101Z,101152.36
2023-02-15T04:52:46.043Z,101149.74
2023-02-15T04:55:18.753Z,101161.59
2023-02-15T04:57:51.501Z,101153.95
2023-02-15T05:00:23.989Z,101164.72
2023-02-15T05:02:56.560Z,101164.51
2023-02-15T05:05:29.873Z,101171.20
2023-02-15T05:08:02.705Z,101174.46
2023-02-15T05:10:35.737Z,101183.11
2023-02-15T05:13:08.228Z,101182.61
2023-02-15T05:15:40.845Z,101188.25
2023-02-15T05:18:13.279Z,101194.77
2023-02-15T05:20:45.704Z,101199.72
2023-02-15T05:23:18.253Z,101202.58
2023-02-15T05:26:11.241Z,101196.49
2023-02-15T05:28:44.902Z,101200.20
2023-02-15T05:31:20.172Z,101207.02
2023-02-15T05:33:52.761Z,101205.73
2023-02-15T05:36:25.489Z,101205.39
2023-02-15T05:38:58.367Z,101215.71
2023-02-15T05:41:31.078Z,101211.36
2023-02-15T05:44:03.635Z,101212.81
2023-02-15T05:46:36.517Z,101217.80
2023-02-15T05:49:08.970Z,101216.40
2023-02-15T05:51:41.557Z,101215.00
2023-02-15T05:54:14.158Z,101218.50
2023-02-15T05:56:46.533Z,101228.70
2023-02-15T05:59:19.350Z,101225.20
2023-02-15T06:01:51.870Z,101229.78
2023-02-15T06:04:24.207Z,101241.83
2023-02-15T06:06:56.509Z,101229.66
2023-02-15T06:09:28.951Z,101231.45
2023-02-15T06:12:01.386Z,101225.36
2023-02-15T06:14:33.919Z,101233.04
2023-02-15T06:17:06.680Z,101241.75
2023-02-15T06:19:39.444Z,101247.80
2023-02-15T06:22:12.082Z,101245.83
2023-02-15T06:24:45.775Z,101238.72
2023-02-15T06:27:18.900Z,101238.34
2023-02-15T06:29:51.691Z,101234.16
2023-02-15T06:32:25.244Z,101238.95
2023-02-15T06:34:59.183Z,101239.63
2023-02-15T06:37:32.310Z,101238.48
2023-02-15T06:40:05.160Z,101224.94
2023-02-15T06:42:37.948Z,101226.72
2023-02-15T06:45:11.365Z,101231.16
2023-02-15T06:47:43.833Z,101222.63
2023-02-15T06:50:16.283Z,101218.73
2023-02-15T06:52:48.679Z,101214.86
2023-02-15T06:55:21.111Z,101218.49
2023-02-15T06:57:53.774Z,101220.55
2023-02-15T07:00:26.404Z,101220.81
2023-02-15T07:03:00.207Z,101224.66
2023-02-15T07:05:35.135Z,101216.31
2023-02-15T07:08:07.656Z,101213.52
2023-02-15T07:10:40.225Z,101209.98
2023-02-15T07:13:12.668Z,101213.77
2023-02-15T07:15:46.641Z,101214.94
2023-02-15T07:18:19.703Z,101211.97
2023-02-15T07:20:52.348Z,101215.48
2023-02-15T07:23:26.362Z,101209.41
2023-02-15T07:26:02.949Z,101200.78
2023-02-15T07:28:36.519Z,101201.81
2023-02-15T07:31:08.960Z,101196.83
2023-02-15T07:33:42.207Z,101201.48
2023-02-15T07:36:15.444Z,101193.60
2023-02-15T07:38:48.161Z,101201.64
2023-02-15T07:41:20.644Z,101199.36
2023-02-15T07:43:53.125Z,101197.34
2023-02-15T07:46:25.455Z,101204.93
2023-02-15T07:48:57.808Z,101209.00
2023-02-15T07:51:30.217Z,101218.75
2023-02-15T07:54:03.352Z,101222.46
2023-02-15T07:56:37.163Z,101223.12
2023-02-15T07:59:10.646Z,101222.73
2023-02-15T08:01:43.446Z,101226.70
2023-02-15T08:04:16.415Z,101223.87
2023-02-15T08:06:49.556Z,101228.22
2023-02-15T08:09:23.824Z,101229.80
2023-02-15T08:11:56.380Z,101231.02
2023-02-15T08:14:30.224Z,101234.18
2023-02-15T08:17:06.141Z,101245.92
2023-02-15T08:19:39.136Z,101234.84
2023-02-15T08:22:15.241Z,101239.34
2023-02-15T08:24:47.773Z,101233.16
2023-02-15T08:27:22.085Z,101235.10
2023-02-15T08:29:54.631Z,101231.17
2023-02-15T08:32:27.065Z,101238.39
2023-02-15T08:34:59.516Z,101239.85
2023-02-15T08:37:31.998Z,101230.94
2023-02-15T08:40:04.459Z,101235.20
2023-02-15T08:42:37.043Z,101233.26
2023-02-15T08:45:11.119Z,101238.10
2023-02-15T08:47:43.621Z,101236.69
2023-02-15T08:50:16.292Z,101256.62
2023-02-15T08:52:48.725Z,101253.67
2023-02-15T08:55:21.892Z,101249.63
2023-02-15T08:57:55.881Z,101246.17
2023-02-15T09:00:29.456Z,101253.13
2023-02-15T09:03:01.930Z,101247.54
2023-02-15T09:05:35.053Z,101243.34
2023-02-15T09:08:07.763Z,101255.09
2023-02-15T09:10:41.212Z,101240.49
2023-02-15T09:13:15.225Z,101255.55
2023-02-15T09:15:48.641Z,101249.58
2023-02-15T09:18:21.534Z,101252.98
2023-02-15T09:20:53.867Z,101252.84
2023-02-15T09:23:27.234Z,101253.42
2023-02-15T09:26:01.458Z,101253.83
2023-02-15T09:28:34.431Z,101249.11
2023-02-15T09:31:17.704Z,101246.74
2023-02-15T09:33:50.730Z,101244.30
2023-02-15T09:36:26.323Z,101242.18
2023-02-15T09:39:06.895Z,101239.57
2023-02-15T09:41:56.309Z,101246.79
2023-02-15T09:44:50.226Z,101245.48
2023-02-15T09:47:45.231Z,101252.62
2023-02-15T09:50:57.205Z,101250.80
2023-02-15T09:53:46.084Z,101252.94
2023-02-15T09:56:28.851Z,101248.23
2023-02-15T09:59:14.482Z,101243.42
2023-02-15T10:02:15.354Z,101248.34
2023-02-15T10:05:01.561Z,101240.22
2023-02-15T10:07:56.726Z,101242.34
2023-02-15T10:11:27.103Z,101234.78
2023-02-15T10:14:35.683Z,101234.56
2023-02-15T10:17:31.122Z,101234.70
2023-02-15T10:20:24.547Z,101228.17
2023-02-15T10:23:38.923Z,101224.47
2023-02-15T10:26:25.262Z,101224.08
2023-02-15T10:29:15.075Z,101225.12
2023-02-15T10:31:58.275Z,101224.50
2023-02-15T10:34:42.275Z,101220.89
2023-02-15T10:37:50.570Z,101219.20
2023-02-15T10:40:42.287Z,101222.18
2023-02-15T10:43:34.402Z,101226.63
2023-02-15T10:46:11.693Z,101221.58
2023-02-15T10:49:19.169Z,101219.59
2023-02-15T10:52:18.994Z,101218.43
2023-02-15T10:54:59.399Z,101221.48
2023-02-15T10:57:40.669Z,101216.99
2023-02-15T11:00:40.351Z,101207.74
2023-02-15T11:03:23.433Z,101212.19
2023-02-15T11:06:14.464Z,101215.45
2023-02-15T11:08:54.742Z,101218.34
2023-02-15T11:11:44.352Z,101202.06
2023-02-15T11:14:49.328Z,101212.58
2023-02-15T11:17:37.881Z,101204.33
2023-02-15T11:20:36.100Z,101207.09
2023-02-15T11:23:17.008Z,101199.43
2023-02-15T11:25:53.966Z,101210.88
2023-02-15T11:28:34.103Z,101202.30
2023-02-15T11:31:22.632Z,101202.66
2023-02-15T11:34:07.728Z,101204.53
2023-02-15T11:36:42.833Z,101197.17
2023-02-15T11:39:17.998Z,101205.48
2023-02-15T11:41:55.137Z,101196.97
2023-02-15T11:44:34.393Z,101196.25
2023-02-15T11:47:14.340Z,101197.34
2023-02-15T11:49:48.026Z,101197.14
2023-02-15T11:52:20.825Z,101189.95
2023-02-15T11:54:53.759Z,101193.92
2023-02-15T11:57:38.994Z,101195.12
2023-02-15T12:00:22.635Z,101196.35
2023-02-15T12:02:56.597Z,101194.84
2023-02-15T12:05:28.921Z,101198.84
2023-02-15T12:08:09.074Z,101187.81
2023-02-15T12:10:49.036Z,101183.66
2023-02-15T12:13:23.175Z,101182.16
2023-02-15T12:15:59.246Z,101180.75
2023-02-15T12:18:45.389Z,101183.91
2023-02-15T12:21:30.459Z,101183.30
2023-02-15T12:24:13.634Z,101180.89
2023-02-15T12:26:45.965Z,101176.74
2023-02-15T12:29:21.770Z,101186.68
2023-02-15T12:31:54.293Z,101179.23
2023-02-15T12:34:44.805Z,101182.47
2023-02-15T12:37:27.815Z,101185.14
2023-02-15T12:40:01.667Z,101189.90
2023-02-15T12:42:46.757Z,101191.53
2023-02-15T12:45:27.034Z,101187.27
2023-02-15T12:48:19.529Z,101182.70
2023-02-15T12:50:55.730Z,101179.41
2023-02-15T12:53:36.576Z,101180.29
2023-02-15T12:56:11.494Z,101187.12
2023-02-15T12:58:43.412Z,101182.14
2023-02-15T13:01:25.492Z,101183.98
2023-02-15T13:04:07.115Z,101184.13
2023-02-15T13:06:39.511Z,101177.01
2023-02-15T13:09:18.228Z,101183.69
2023-02-15T13:11:50.705Z,101185.50
2023-02-15T13:14:33.211Z,101187.66
2023-02-15T13:17:08.778Z,101183.48
2023-02-15T13:19:51.469Z,101197.56
2023-02-15T13:22:41.425Z,101192.08
2023-02-15T13:25:27.178Z,101196.50
2023-02-15T13:28:04.616Z,101196.67
2023-02-15T13:30:40.796Z,101192.25
2023-02-15T13:33:36.025Z,101203.03
2023-02-15T13:36:33.909Z,101198.94
2023-02-15T13:39:32.705Z,101212.59
2023-02-15T13:42:24.544Z,101206.25
2023-02-15T13:45:21.409Z,101198.80
2023-02-15T13:48:19.332Z,101196.41
2023-02-15T13:51:17.460Z,101201.93
2023-02-15T13:54:12.512Z,101204.54
2023-02-15T13:57:23.005Z,101201.05
2023-02-15T14:00:05.661Z,101206.06
2023-02-15T14:03:31.173Z,101201.31
2023-02-15T14:06:35.028Z,101199.66
2023-02-15T14:09:34.653Z,101201.69
2023-02-15T14:12:18.177Z,101206.41
2023-02-15T14:15:01.322Z,101203.88
2023-02-15T14:17:44.472Z,101203.08
2023-02-15T14:20:50.220Z,101198.48
2023-02-15T14:24:09.444Z,101199.66
2023-02-15T14:26:50.017Z,101201.56
2023-02-15T14:29:57.296Z,101197.69
2023-02-15T14:32:43.280Z,101204.21
2023-02-15T14:35:20.794Z,101199.45
2023-02-15T14:38:14.176Z,101205.89
2023-02-15T14:41:04.573Z,101200.66
2023-02-15T14:44:12.320Z,101200.31
2023-02-15T14:47:02.498Z,101205.86
2023-02-15T14:49:40.346Z,101201.83
2023-02-15T14:52:13.576Z,101206.81
2023-02-15T14:54:50.912Z,101205.50
2023-02-15T14:57:28.682Z,101208.43
2023-02-15T15:00:02.392Z,101212.09
2023-02-15T15:02:50.206Z,101220.16
2023-02-15T15:05:38.314Z,101223.24
2023-02-15T15:08:15.591Z,101222.25
2023-02-15T15:10:49.414Z,101231.90
2023-02-15T15:13:39.042Z,101220.25
2023-02-15T15:16:42.114Z,101230.06
2023-02-15T15:19:14.440Z,101228.66
2023-02-15T15:21:54.536Z,101237.97
2023-02-15T15:24:47.102Z,101238.28
2023-02-15T15:27:50.175Z,101235.98
2023-02-15T15:30:27.425Z,101233.06
2023-02-15T15:33:10.385Z,101236.25
2023-02-15T15:36:13.321Z,101232.91
2023-02-15T15:39:10.966Z,101239.40
2023-02-15T15:42:14.357Z,101242.63
2023-02-15T15:45:20.008Z,101238.52
2023-02-15T15:48:31.124Z,101241.20
2023-02-15T15:51:22.642Z,101246.36
2023-02-15T15:53:55.176Z,101250.23
2023-02-15T15:56:36.627Z,101240.16
2023-02-15T15:59:11.839Z,101241.50
2023-02-15T16:01:47.452Z,101248.00
2023-02-15T16:04:30.945Z,101240.69
2023-02-15T16:07:27.158Z,101256.20
2023-02-15T16:10:09.347Z,101255.39
2023-02-15T16:12:42.045Z,101257.77
2023-02-15T16:15:24.972Z,101260.92
2023-02-15T16:17:59.149Z,101262.52
2023-02-15T16:20:38.360Z,101262.91
2023-02-15T16:23:34.994Z,101266.94
2023-02-15T16:26:17.663Z,101265.59
2023-02-15T16:28:53.715Z,101266.44
2023-02-15T16:31:26.258Z,101265.74
2023-02-15T16:33:59.409Z,101269.11
2023-02-15T16:36:31.724Z,101276.72
2023-02-15T16:39:21.041Z,101270.21
2023-02-15T16:41:53.633Z,101270.60
2023-02-15T16:44:26.660Z,101274.32
2023-02-15T16:46:59.076Z,101274.46
2023-02-15T16:49:31.890Z,101269.23
2023-02-15T16:52:09.670Z,101269.09
2023-02-15T16:54:43.919Z,101267.20
2023-02-15T16:57:25.048Z,101267.59
2023-02-15T17:00:01.213Z,101274.63
2023-02-15T17:02:56.315Z,101276.40
2023-02-15T17:05:18.466Z,101272.30
2023-02-15T17:08:10.324Z,101275.06
2023-02-15T17:10:44.141Z,101282.31
2023-02-15T17:13:18.066Z,101284.86
2023-02-15T17:16:05.234Z,101284.32
2023-02-15T17:18:47.434Z,101278.30
2023-02-15T17:21:25.861Z,101283.47
2023-02-15T17:24:04.266Z,101286.22
2023-02-15T17:26:38.408Z,101281.80
2023-02-15T17:29:41.153Z,101280.67
2023-02-15T17:32:23.589Z,101276.16
2023-02-15T17:35:12.283Z,101276.84
2023-02-15T17:37:48.832Z,101275.95
2023-02-15T17:40:27.301Z,101271.98
2023-02-15T17:42:59.960Z,101269.30
2023-02-15T17:45:40.011Z,101267.95
2023-02-15T17:48:16.651Z,101270.02
2023-02-15T17:50:49.233Z,101278.36
2023-02-15T17:53:22.370Z,101270.13
2023-02-15T17:55:56.124Z,101273.41
2023-02-15T17:58:28.847Z,101270.87
2023-02-15T18:01:19.202Z,101272.78
2023-02-15T18:04:10.438Z,101271.15
2023-02-15T18:07:01.941Z,101270.77
2023-02-15T18:09:52.270Z,101277.09
2023-02-15T18:12:32.503Z,101276.41
2023-02-15T18:15:05.951Z,101275.63
2023-02-15T18:17:41.395Z,101276.41
2023-02-15T18:20:31.171Z,101272.38
2023-02-15T18:23:03.867Z,101280.87
2023-02-15T18:25:36.341Z,101278.04
2023-02-15T18:28:08.988Z,101283.24
2023-02-15T18:30:43.821Z,101278.15
2023-02-15T18:33:28.195Z,101279.28
2023-02-15T18:36:01.259Z,101275.11
2023-02-15T18:38:34.441Z,101285.86
2023-02-15T18:41:07.214Z,101278.93
2023-02-15T18:43:41.903Z,101280.55
2023-02-15T18:46:15.042Z,101286.17
2023-02-15T18:48:47.621Z,101279.98
2023-02-15T18:51:24.352Z,101272.66
2023-02-15T18:53:56.855Z,101276.69
2023-02-15T18:56:31.129Z,101281.14
2023-02-15T18:59:03.560Z,101277.58
2023-02-15T19:01:36.588Z,101281.74
2023-02-15T19:04:09.501Z,101278.88
2023-02-15T19:06:46.701Z,101285.59
2023-02-15T19:09:26.306Z,101281.81
2023-02-15T19:12:09.032Z,101270.91
2023-02-15T19:14:41.756Z,101275.98
2023-02-15T19:17:18.741Z,101269.22
2023-02-15T19:19:51.664Z,101266.16
2023-02-15T19:22:31.335Z,101267.79
2023-02-15T19:25:04.696Z,101270.53
2023-02-15T19:27:37.418Z,101269.30
2023-02-15T19:30:27.383Z,101270.55
2023-02-15T19:33:00.061Z,101266.48
2023-02-15T19:35:35.925Z,101265.56
2023-02-15T19:38:09.527Z,101276.70
2023-02-15T19:40:42.155Z,101271.85
2023-02-15T19:43:26.306Z,101275.81
2023-02-15T19:45:58.760Z,101272.49
2023-02-15T19:48:31.098Z,101269.42
2023-02-15T19:51:05.664Z,101268.64
2023-02-15T19:53:38.666Z,101271.95
2023-02-15T19:56:15.138Z,101271.95
2023-02-15T19:58:49.713Z,101268.52
2023-02-15T20:01:23.095Z,101272.55
2023-02-15T20:03:55.693Z,101270.17
2023-02-15T20:06:29.025Z,101268.16
2023-02-15T20:09:01.815Z,101270.45
2023-02-15T20:11:34.158Z,101272.64
2023-02-15T20:14:11.428Z,101269.23
2023-02-15T20:16:44.302Z,101273.01
2023-02-15T20:19:17.409Z,101267.78
2023-02-15T20:21:51.824Z,101271.05
2023-02-15T20:24:24.311Z,101266.64
2023-02-15T20:26:57.318Z,101274.56
2023-02-15T20:29:30.017Z,101275.55
2023-02-15T20:32:03.562Z,101265.36
2023-02-15T20:34:36.535Z,101262.61
2023-02-15T20:37:12.163Z,101268.30
2023-02-15T20:39:44.842Z,101266.08
2023-02-15T20:42:17.299Z,101267.48
2023-02-15T20:44:50.852Z,101261.73
2023-02-15T20:47:23.462Z,101265.75
2023-02-15T20:49:57.339Z,101264.48
2023-02-15T20:52:29.631Z,101265.23
2023-02-15T20:55:01.971Z,101260.39
2023-02-15T20:57:35.433Z,101262.69
2023-02-15T21:00:12.184Z,101261.05
2023-02-15T21:02:45.540Z,101257.72
2023-02-15T21:05:24.950Z,101257.17
2023-02-15T21:07:57.982Z,101254.29
2023-02-15T21:10:34.021Z,101261.62
2023-02-15T21:13:06.608Z,101265.52
2023-02-15T21:15:40.210Z,101264.69
2023-02-15T21:18:19.972Z,101259.85
2023-02-15T21:20:57.466Z,101261.75
2023-02-15T21:23:39.685Z,101255.50
2023-02-15T21:26:19.953Z,101260.54
2023-02-15T21:28:52.986Z,101262.08
2023-02-15T21:31:28.688Z,101265.64
2023-02-15T21:34:01.799Z,101265.09
2023-02-15T21:36:34.599Z,101268.33
2023-02-15T21:39:07.642Z,101270.58
2023-02-15T21:41:57.780Z,101268.45
2023-02-15T21:44:47.912Z,101269.25
2023-02-15T21:47:39.766Z,101272.29
2023-02-15T21:50:33.365Z,101268.33
2023-02-15T21:53:06.327Z,101273.70
2023-02-15T21:55:40.604Z,101267.58
2023-02-15T21:58:21.471Z,101269.31
2023-02-15T22:00:57.804Z,101271.53
2023-02-15T22:03:34.264Z,101274.41
2023-02-15T22:06:07.117Z,101271.14
2023-02-15T22:08:39.513Z,101268.19
2023-02-15T22:11:17.264Z,101268.38
2023-02-15T22:13:51.394Z,101264.05
2023-02-15T22:16:24.623Z,101267.69
2023-02-15T22:18:56.962Z,101273.57
2023-02-15T22:21:31.005Z,101265.06
2023-02-15T22:24:03.300Z,101266.02
2023-02-15T22:26:35.598Z,101268.63
2023-02-15T22:29:08.584Z,101263.02
2023-02-15T22:31:41.092Z,101266.55
2023-02-15T22:34:32.018Z,101268.84
2023-02-15T22:37:06.025Z,101266.22
2023-02-15T22:39:38.448Z,101267.94
2023-02-15T22:42:25.580Z,101267.22
2023-02-15T22:44:58.730Z,101272.97
2023-02-15T22:47:32.350Z,101268.43
2023-02-15T22:50:05.110Z,101265.62
2023-02-15T22:52:38.177Z,101270.83
2023-02-15T22:55:16.663Z,101272.66
2023-02-15T22:57:51.389Z,101263.13
2023-02-15T23:00:27.121Z,101264.72
2023-02-15T23:03:00.048Z,101264.30
2023-02-15T23:05:33.359Z,101263.31
2023-02-15T23:08:06.578Z,101261.84
2023-02-15T23:10:39.261Z,101260.49
2023-02-15T23:13:25.884Z,101258.72
2023-02-15T23:16:03.155Z,101262.23
2023-02-15T23:18:40.940Z,101261.47
2023-02-15T23:21:29.087Z,101262.88
2023-02-15T23:24:28.744Z,101260.83
2023-02-15T23:27:02.891Z,101264.91
2023-02-15T23:29:35.211Z,101265.16
2023-02-15T23:32:09.720Z,101262.14
2023-02-15T23:34:42.906Z,101268.02
2023-02-15T23:37:15.552Z,101258.83
2023-02-15T23:40:05.719Z,101268.33
2023-02-15T23:42:38.921Z,101267.42
2023-02-15T23:45:22.507Z,101271.95
2023-02-15T23:48:12.694Z,101269.80
2023-02-15T23:50:45.103Z,101273.36
2023-02-15T23:53:17.373Z,101266.72
2023-02-15T23:55:50.353Z,101276.59
2023-02-15T23:58:26.014Z,101282.02
